Time;durP1;ratioP1;P1;durP2;ratioP2;P2;SDS_P1;SDS_P2;PMS_P1;PMS_P2;Temp;Humidity;BMP_temperature;BMP_pressure;BME280_temperature;BME280_humidity;BME280_pressure;Samples;Min_cycle;Max_cycle;Signal;HPM_P1;HPM_P2
2022/04/04 00:01:58;;;;;;;;;;;;;;;-0.15;85.67;101967.69;5105294;28;19935;-71
2022/04/04 00:04:23;;;;;;;;;;;;;;;-0.12;86.18;101960.38;5103147;28;20087;-71
2022/04/04 00:06:49;;;;;;;;;;;;;;;-0.13;80.71;101960.22;5106886;28;19986;-70
2022/04/04 00:09:14;;;;;;;;;;;;;;;-0.15;87.69;101955.03;5103385;28;19939;-71
2022/04/04 00:11:39;;;;;;;;;;;;;;;-0.17;88.00;101948.09;5105667;28;19919;-70
2022/04/04 00:14:05;;;;;;;;;;;;;;;-0.18;85.92;101946.28;5103472;28;20389;-71
2022/04/04 00:16:32;;;;;;;;;;;;;;;-0.23;88.93;101945.91;5105582;28;20390;-71
2022/04/04 00:18:57;;;;;;;;;;;;;;;-0.23;88.82;101943.38;5107849;27;19932;-72
2022/04/04 00:21:22;;;;;;;;;;;;;;;-0.20;88.06;101932.63;5106084;28;20390;-72
2022/04/04 00:23:48;;;;;;;;;;;;;;;-0.11;82.08;101931.81;5102691;28;19973;-72
2022/04/04 00:26:13;;;;;;;;;;;;;;;-0.13;88.41;101919.78;5107631;28;19986;-72
2022/04/04 00:28:38;;;;;;;;;;;;;;;-0.13;88.55;101923.19;5112143;28;20981;-72
2022/04/04 00:31:04;;;;;;;;;;;;;;;-0.17;88.08;101922.81;5111468;28;19943;-72
2022/04/04 00:33:29;;;;;;;;;;;;;;;-0.20;88.35;101915.84;5110003;28;19985;-71
2022/04/04 00:35:54;;;;;;;;;;;;;;;-0.24;87.35;101913.81;5108961;28;19920;-71
2022/04/04 00:38:22;;;;;;;;;;;;;;;-0.26;86.52;101907.72;5102858;27;20022;-71
2022/04/04 00:40:47;;;;;;;;;;;;;;;-0.21;87.32;101910.66;5104319;27;19995;-71
2022/04/04 00:43:12;;;;;;;;;;;;;;;-0.22;90.28;101912.28;5097767;27;20018;-71
2022/04/04 00:45:38;;;;;;;;;;;;;;;-0.21;88.58;101901.41;5104956;28;19976;-71
2022/04/04 00:48:03;;;;;;;;;;;;;;;-0.17;86.79;101898.41;5107113;28;19927;-71
2022/04/04 00:50:28;;;;;;;;;;;;;;;-0.12;82.78;101892.13;5106455;27;19923;-71
2022/04/04 00:52:54;;;;;;;;;;;;;;;-0.16;84.24;101886.66;5106129;28;19920;-71
2022/04/04 00:55:19;;;;;;;;;;;;;;;-0.16;87.49;101889.19;5104592;28;21202;-71
2022/04/04 00:57:45;;;;;;;;;;;;;;;-0.18;86.83;101889.06;5104452;28;19920;-71
2022/04/04 01:00:11;;;;;;;;;;;;;;;-0.22;87.69;101887.00;5104138;28;20321;-71
2022/04/04 01:02:37;;;;;;;;;;;;;;;-0.25;86.48;101888.38;5102003;28;20063;-71
2022/04/04 01:05:04;;;;;;;;;;;;;;;-0.29;86.63;101877.13;5106459;28;19916;-71
2022/04/04 01:07:29;;;;;;;;;;;;;;;-0.31;88.04;101876.09;5101570;28;19915;-71
2022/04/04 01:09:55;;;;;;;;;;;;;;;-0.32;84.67;101871.78;5102898;28;20255;-71
2022/04/04 01:12:22;;;;;;;;;;;;;;;-0.36;84.89;101867.25;5105234;28;19934;-71
2022/04/04 01:14:48;;;;;;;;;;;;;;;-0.39;87.05;101862.78;5107212;28;19994;-71
2022/04/04 01:17:17;;;;;;;;;;;;;;;-0.41;88.72;101864.31;5107179;28;19928;-71
2022/04/04 01:19:43;;;;;;;;;;;;;;;-0.36;89.30;101857.13;5104223;28;19919;-72
2022/04/04 01:22:09;;;;;;;;;;;;;;;-0.34;86.42;101848.91;5105648;28;19923;-72
2022/04/04 01:24:34;;;;;;;;;;;;;;;-0.19;84.55;101838.34;5103191;28;19920;-71
2022/04/04 01:27:00;;;;;;;;;;;;;;;-0.35;83.58;101834.50;5106154;28;19961;-73
2022/04/04 01:29:25;;;;;;;;;;;;;;;-0.31;82.70;101836.53;5103356;28;20287;-72
2022/04/04 01:31:51;;;;;;;;;;;;;;;-0.34;85.94;101838.81;5104351;28;19927;-73
2022/04/04 01:34:19;;;;;;;;;;;;;;;-0.38;84.90;101828.28;5103256;28;20014;-72
2022/04/04 01:36:45;;;;;;;;;;;;;;;-0.38;85.27;101828.28;5102628;28;19989;-72
2022/04/04 01:39:10;;;;;;;;;;;;;;;-0.43;86.96;101810.19;5104527;28;19970;-71
2022/04/04 01:41:35;;;;;;;;;;;;;;;-0.44;83.74;101805.03;5103389;28;20385;-71
2022/04/04 01:44:01;;;;;;;;;;;;;;;-0.35;84.64;101803.31;5104251;28;19976;-71
2022/04/04 01:46:29;;;;;;;;;;;;;;;-0.34;87.53;101794.97;5103524;28;19950;-71
2022/04/04 01:48:55;;;;;;;;;;;;;;;-0.40;88.99;101790.25;5105464;28;19927;-72
2022/04/04 01:51:20;;;;;;;;;;;;;;;-0.39;86.86;101791.16;5105030;28;19920;-71
2022/04/04 01:53:46;;;;;;;;;;;;;;;-0.36;84.94;101784.72;5104074;27;19938;-71
2022/04/04 01:56:11;;;;;;;;;;;;;;;-0.45;86.43;101775.47;5103575;28;19946;-71
2022/04/04 01:58:37;;;;;;;;;;;;;;;-0.48;87.82;101775.22;5097280;28;20008;-72
2022/04/04 02:01:08;;;;;;;;;;;;;;;-0.47;84.88;101765.22;5104800;27;19919;-71
2022/04/04 02:03:33;;;;;;;;;;;;;;;-0.48;87.31;101766.00;5103717;28;19916;-71
2022/04/04 02:05:59;;;;;;;;;;;;;;;-0.47;86.56;101759.28;5097631;28;19926;-71
2022/04/04 02:08:25;;;;;;;;;;;;;;;-0.41;84.59;101754.78;5097981;28;21084;-72
2022/04/04 02:10:50;;;;;;;;;;;;;;;-0.38;86.75;101749.97;5099538;28;19923;-71
2022/04/04 02:13:15;;;;;;;;;;;;;;;-0.43;87.80;101749.56;5098812;28;19919;-71
2022/04/04 02:15:41;;;;;;;;;;;;;;;-0.43;86.87;101741.09;5100669;28;20004;-71
2022/04/04 02:18:06;;;;;;;;;;;;;;;-0.42;88.89;101740.38;5106563;28;19938;-71
2022/04/04 02:20:31;;;;;;;;;;;;;;;-0.31;86.45;101742.13;5103338;28;19924;-72
2022/04/04 02:22:56;;;;;;;;;;;;;;;-0.32;84.57;101730.25;5103668;28;19994;-71
2022/04/04 02:25:22;;;;;;;;;;;;;;;-0.28;88.15;101733.19;5098101;28;21638;-72
2022/04/04 02:27:47;;;;;;;;;;;;;;;-0.27;86.01;101726.50;5105381;28;19961;-71
2022/04/04 02:30:13;;;;;;;;;;;;;;;-0.23;86.43;101726.00;5104041;28;19939;-71
2022/04/04 02:32:38;;;;;;;;;;;;;;;-0.11;87.33;101718.56;5104225;28;19931;-72
2022/04/04 02:35:04;;;;;;;;;;;;;;;-0.03;86.66;101718.44;5105020;28;19938;-71
2022/04/04 02:37:29;;;;;;;;;;;;;;;-0.03;84.35;101715.91;5102780;28;19919;-71
2022/04/04 02:39:54;;;;;;;;;;;;;;;-0.04;86.26;101705.69;5105171;28;19959;-71
2022/04/04 02:42:20;;;;;;;;;;;;;;;0.01;86.95;101701.03;5102128;28;19923;-71
2022/04/04 02:44:45;;;;;;;;;;;;;;;0.12;85.66;101692.66;5105255;28;20392;-71
2022/04/04 02:47:10;;;;;;;;;;;;;;;0.12;84.60;101688.50;5105948;28;19924;-72
2022/04/04 02:49:36;;;;;;;;;;;;;;;0.15;85.51;101678.63;5106303;28;19934;-71
2022/04/04 02:52:01;;;;;;;;;;;;;;;0.16;87.16;101672.81;5111262;28;20371;-72
2022/04/04 02:54:26;;;;;;;;;;;;;;;0.21;85.35;101675.72;5108466;28;19938;-70
2022/04/04 02:56:52;;;;;;;;;;;;;;;0.27;86.67;101666.13;5113841;28;19927;-70
2022/04/04 02:59:17;;;;;;;;;;;;;;;0.30;86.60;101660.41;5107872;28;19969;-70
2022/04/04 03:01:48;;;;;;;;;;;;;;;0.32;84.68;101651.31;5109906;28;19924;-71
2022/04/04 03:04:16;;;;;;;;;;;;;;;0.40;85.89;101646.09;5111505;28;20014;-70
2022/04/04 03:06:42;;;;;;;;;;;;;;;0.44;86.58;101644.72;5107468;28;20377;-70
2022/04/04 03:09:07;;;;;;;;;;;;;;;0.45;84.92;101636.38;5110477;28;20525;-70
2022/04/04 03:11:33;;;;;;;;;;;;;;;0.56;86.05;101632.19;5105081;28;19916;-70
2022/04/04 03:13:58;;;;;;;;;;;;;;;0.57;85.79;101621.28;5112857;28;19915;-70
2022/04/04 03:16:23;;;;;;;;;;;;;;;0.54;86.55;101622.78;5108351;28;19999;-70
2022/04/04 03:18:49;;;;;;;;;;;;;;;0.59;84.82;101623.16;5110225;28;20499;-70
2022/04/04 03:21:14;;;;;;;;;;;;;;;0.64;86.63;101615.94;5109218;28;20274;-70
2022/04/04 03:23:40;;;;;;;;;;;;;;;0.77;83.71;101606.03;5109869;28;19924;-70
2022/04/04 03:26:07;;;;;;;;;;;;;;;0.61;85.11;101608.09;5106257;28;19926;-70
2022/04/04 03:28:32;;;;;;;;;;;;;;;0.59;85.25;101602.03;5107878;28;19934;-70
2022/04/04 03:30:57;;;;;;;;;;;;;;;0.69;85.58;101602.88;5105718;28;19923;-70
2022/04/04 03:33:22;;;;;;;;;;;;;;;0.67;85.41;101593.41;5104610;28;20023;-71
2022/04/04 03:35:48;;;;;;;;;;;;;;;0.66;88.14;101587.44;5107127;28;20297;-71
2022/04/04 03:38:14;;;;;;;;;;;;;;;0.68;85.97;101587.59;5107083;28;19931;-71
2022/04/04 03:40:39;;;;;;;;;;;;;;;0.76;85.78;101584.00;5107412;28;19924;-71
2022/04/04 03:43:05;;;;;;;;;;;;;;;0.84;85.57;101579.53;5102381;28;19923;-71
2022/04/04 03:45:30;;;;;;;;;;;;;;;0.84;86.75;101567.75;5106154;28;19923;-71
2022/04/04 03:47:56;;;;;;;;;;;;;;;0.82;86.63;101566.75;5104579;28;20300;-71
2022/04/04 03:50:22;;;;;;;;;;;;;;;0.88;86.67;101568.91;5106146;27;19920;-71
2022/04/04 03:52:50;;;;;;;;;;;;;;;0.87;86.33;101557.00;5106892;28;22585;-72
2022/04/04 03:55:16;;;;;;;;;;;;;;;0.91;84.64;101559.91;5100067;28;20377;-72
2022/04/04 03:57:41;;;;;;;;;;;;;;;0.93;86.09;101549.88;5101478;28;19932;-71
2022/04/04 04:00:07;;;;;;;;;;;;;;;1.01;86.54;101556.41;5106568;27;19920;-72
2022/04/04 04:02:33;;;;;;;;;;;;;;;1.07;86.06;101544.22;5106701;27;19916;-72
2022/04/04 04:04:59;;;;;;;;;;;;;;;1.02;87.17;101542.97;5107621;28;19945;-72
2022/04/04 04:07:25;;;;;;;;;;;;;;;1.10;86.16;101530.94;5106628;27;20027;-69
2022/04/04 04:09:53;;;;;;;;;;;;;;;1.08;86.86;101529.13;5106656;28;20382;-70
2022/04/04 04:12:20;;;;;;;;;;;;;;;1.15;87.19;101522.00;5107413;27;20006;-71
2022/04/04 04:14:46;;;;;;;;;;;;;;;1.25;86.39;101519.41;5106344;27;19974;-71
2022/04/04 04:17:13;;;;;;;;;;;;;;;1.23;86.84;101506.63;5109123;28;19923;-71
2022/04/04 04:22:22;;;;;;;;;;;;;;;1.26;85.63;101509.38;5105782;27;19928;-71
2022/04/04 04:24:48;;;;;;;;;;;;;;;1.26;86.72;101498.38;5108931;27;19924;-71
2022/04/04 04:27:14;;;;;;;;;;;;;;;1.28;85.79;101496.84;5107878;28;19916;-70
2022/04/04 04:29:39;;;;;;;;;;;;;;;1.23;87.33;101491.44;5104639;28;19930;-70
2022/04/04 04:32:05;;;;;;;;;;;;;;;1.30;85.40;101480.09;5101734;28;19942;-71
2022/04/04 04:34:30;;;;;;;;;;;;;;;1.32;86.89;101481.09;5101506;28;19924;-71
2022/04/04 04:36:55;;;;;;;;;;;;;;;1.41;85.96;101474.19;5106102;28;19935;-70
2022/04/04 04:39:21;;;;;;;;;;;;;;;1.39;87.67;101464.69;5104680;28;19932;-70
2022/04/04 04:41:46;;;;;;;;;;;;;;;1.46;85.60;101472.88;5104567;28;19968;-71
2022/04/04 04:44:12;;;;;;;;;;;;;;;1.60;85.08;101461.22;5103333;28;20374;-71
2022/04/04 04:46:37;;;;;;;;;;;;;;;1.59;85.62;101457.81;5103557;28;19924;-71
2022/04/04 04:49:02;;;;;;;;;;;;;;;1.58;85.80;101450.97;5107718;28;19928;-71
2022/04/04 04:51:27;;;;;;;;;;;;;;;1.60;85.70;101451.06;5105567;28;19927;-70
2022/04/04 04:53:53;;;;;;;;;;;;;;;1.59;86.97;101440.06;5107342;28;20282;-71
2022/04/04 04:56:18;;;;;;;;;;;;;;;1.68;85.69;101439.84;5103064;28;19973;-71
2022/04/04 04:58:43;;;;;;;;;;;;;;;1.67;85.23;101435.53;5106829;28;19923;-71
2022/04/04 05:01:09;;;;;;;;;;;;;;;1.70;84.93;101424.72;5104734;28;20081;-70
2022/04/04 05:03:34;;;;;;;;;;;;;;;1.78;85.41;101421.09;5107542;28;19916;-70
2022/04/04 05:05:59;;;;;;;;;;;;;;;1.82;85.60;101420.53;5105858;28;19916;-70
2022/04/04 05:08:25;;;;;;;;;;;;;;;1.93;85.21;101417.13;5104520;28;20286;-70
2022/04/04 05:10:51;;;;;;;;;;;;;;;1.98;84.79;101409.84;5104851;28;19955;-70
2022/04/04 05:13:17;;;;;;;;;;;;;;;2.08;84.30;101409.72;5112341;28;19928;-71
2022/04/04 05:15:44;;;;;;;;;;;;;;;2.00;84.36;101401.59;5110734;28;19915;-71
2022/04/04 05:18:09;;;;;;;;;;;;;;;2.02;85.19;101396.63;5108343;28;20053;-70
2022/04/04 05:20:34;;;;;;;;;;;;;;;2.17;84.33;101384.09;5111726;27;20007;-71
2022/04/04 05:23:00;;;;;;;;;;;;;;;2.35;83.65;101372.69;5106835;28;19999;-70
2022/04/04 05:25:25;;;;;;;;;;;;;;;2.35;83.25;101370.16;5102275;28;19923;-70
2022/04/04 05:27:50;;;;;;;;;;;;;;;2.34;83.85;101376.91;5102135;28;19927;-70
2022/04/04 05:30:16;;;;;;;;;;;;;;;2.37;83.65;101363.56;5104131;28;19932;-71
2022/04/04 05:32:41;;;;;;;;;;;;;;;2.37;83.02;101366.09;5100794;28;20543;-71
2022/04/04 05:35:07;;;;;;;;;;;;;;;2.31;83.88;101369.09;5097562;28;19928;-70
2022/04/04 05:37:33;;;;;;;;;;;;;;;2.46;83.54;101360.75;5102137;28;20320;-71
2022/04/04 05:39:58;;;;;;;;;;;;;;;2.62;83.09;101346.66;5100843;27;19924;-71
2022/04/04 05:42:23;;;;;;;;;;;;;;;2.45;84.01;101356.47;5097012;28;19923;-72
2022/04/04 05:44:49;;;;;;;;;;;;;;;2.62;83.25;101354.28;5102232;28;19930;-71
2022/04/04 05:47:17;;;;;;;;;;;;;;;2.63;83.32;101333.19;5097387;28;19935;-71
2022/04/04 05:49:43;;;;;;;;;;;;;;;2.56;83.57;101333.56;5101097;28;19924;-71
2022/04/04 05:52:09;;;;;;;;;;;;;;;2.85;83.00;101329.53;5107981;27;19926;-71
2022/04/04 05:54:35;;;;;;;;;;;;;;;2.80;83.10;101334.31;5107878;27;19916;-71
2022/04/04 05:57:00;;;;;;;;;;;;;;;2.75;83.95;101329.72;5104543;27;19916;-71
2022/04/04 05:59:25;;;;;;;;;;;;;;;2.83;83.33;101319.28;5106908;28;19962;-71
2022/04/04 06:01:51;;;;;;;;;;;;;;;2.99;82.31;101318.63;5104727;28;19920;-71
2022/04/04 06:04:16;;;;;;;;;;;;;;;2.87;82.75;101306.00;5106182;28;19955;-71
2022/04/04 06:06:42;;;;;;;;;;;;;;;2.86;82.98;101319.50;5103160;28;19934;-72
2022/04/04 06:09:07;;;;;;;;;;;;;;;2.98;82.05;101313.47;5106720;28;19924;-72
2022/04/04 06:11:33;;;;;;;;;;;;;;;3.02;82.04;101301.03;5106359;28;20005;-72
2022/04/04 06:13:58;;;;;;;;;;;;;;;3.28;80.26;101289.16;5102653;28;20518;-72
2022/04/04 06:16:24;;;;;;;;;;;;;;;3.25;79.59;101305.06;5107863;28;19919;-72
2022/04/04 06:18:50;;;;;;;;;;;;;;;3.48;79.41;101301.47;5107059;28;20018;-72
2022/04/04 06:21:15;;;;;;;;;;;;;;;3.54;79.19;101299.31;5105984;28;20018;-72
2022/04/04 06:23:41;;;;;;;;;;;;;;;3.66;78.08;101289.03;5110090;28;20516;-72
2022/04/04 06:26:06;;;;;;;;;;;;;;;3.79;76.91;101283.91;5109735;27;20321;-72
2022/04/04 06:28:34;;;;;;;;;;;;;;;3.79;77.50;101289.00;5112579;27;19924;-72
2022/04/04 06:31:01;;;;;;;;;;;;;;;3.83;77.00;101275.69;5107658;27;19985;-72
2022/04/04 06:33:27;;;;;;;;;;;;;;;3.97;76.62;101272.31;5110747;27;19934;-72
2022/04/04 06:35:53;;;;;;;;;;;;;;;4.01;75.86;101275.94;5110543;27;19920;-71
2022/04/04 06:38:18;;;;;;;;;;;;;;;4.09;76.19;101262.00;5109971;27;19976;-71
2022/04/04 06:40:48;;;;;;;;;;;;;;;4.27;75.54;101263.09;5107395;27;19916;-71
2022/04/04 06:43:13;;;;;;;;;;;;;;;4.29;75.37;101251.34;5108884;28;20045;-71
2022/04/04 06:45:41;;;;;;;;;;;;;;;4.39;75.41;101252.78;5109500;28;20014;-71
2022/04/04 06:48:06;;;;;;;;;;;;;;;4.38;74.98;101243.38;5109435;28;19927;-72
2022/04/04 06:50:31;;;;;;;;;;;;;;;4.36;74.88;101241.50;5109156;28;20266;-72
2022/04/04 06:52:57;;;;;;;;;;;;;;;4.31;75.61;101238.72;5105973;27;19960;-72
2022/04/04 06:55:23;;;;;;;;;;;;;;;4.48;74.69;101226.94;5106494;28;19991;-72
2022/04/04 06:57:49;;;;;;;;;;;;;;;4.45;74.26;101212.38;5109456;27;20064;-71
2022/04/04 07:00:16;;;;;;;;;;;;;;;4.49;75.16;101226.16;5105887;28;19999;-71
2022/04/04 07:02:41;;;;;;;;;;;;;;;4.60;74.21;101214.94;5106707;27;19927;-72
2022/04/04 07:05:08;;;;;;;;;;;;;;;4.62;73.76;101213.38;5104912;27;20310;-72
2022/04/04 07:07:33;;;;;;;;;;;;;;;4.77;73.58;101203.16;5106503;28;20375;-72
2022/04/04 07:09:59;;;;;;;;;;;;;;;4.82;73.04;101206.84;5103784;28;19931;-72
2022/04/04 07:12:25;;;;;;;;;;;;;;;4.99;72.87;101207.81;5108905;28;19919;-73
2022/04/04 07:14:50;;;;;;;;;;;;;;;4.94;72.81;101194.78;5105810;28;19985;-72
2022/04/04 07:17:15;;;;;;;;;;;;;;;4.91;72.15;101186.09;5106044;28;19920;-74
2022/04/04 07:19:40;;;;;;;;;;;;;;;5.00;72.84;101176.41;5106887;28;20027;-73
2022/04/04 07:22:06;;;;;;;;;;;;;;;5.01;72.56;101173.94;5108365;28;19915;-73
2022/04/04 07:24:31;;;;;;;;;;;;;;;5.14;71.91;101180.59;5107857;28;19923;-74
2022/04/04 07:26:56;;;;;;;;;;;;;;;5.26;72.19;101167.63;5107803;28;19938;-71
2022/04/04 07:29:22;;;;;;;;;;;;;;;5.27;71.47;101166.84;5109667;28;19970;-73
2022/04/04 07:31:47;;;;;;;;;;;;;;;5.28;72.29;101174.59;5109023;28;19926;-70
2022/04/04 07:34:14;;;;;;;;;;;;;;;5.32;71.87;101173.94;5108787;28;19936;-72
2022/04/04 07:36:40;;;;;;;;;;;;;;;5.30;71.82;101169.56;5115885;28;20396;-73
2022/04/04 07:39:06;;;;;;;;;;;;;;;5.30;71.59;101162.81;5121029;28;19991;-73
2022/04/04 07:41:31;;;;;;;;;;;;;;;5.30;72.72;101150.06;5108849;28;19920;-71
2022/04/04 07:43:56;;;;;;;;;;;;;;;5.28;72.73;101136.34;5109716;28;19920;-72
2022/04/04 07:46:22;;;;;;;;;;;;;;;5.34;72.44;101146.88;5107694;28;19935;-72
2022/04/04 07:48:47;;;;;;;;;;;;;;;5.29;73.07;101138.09;5108440;28;19922;-72
2022/04/04 07:51:13;;;;;;;;;;;;;;;5.39;72.52;101130.13;5107178;28;19928;-71
2022/04/04 07:53:38;;;;;;;;;;;;;;;5.61;71.89;101126.16;5105747;28;19974;-72
2022/04/04 07:56:04;;;;;;;;;;;;;;;5.67;71.37;101120.50;5107935;28;19919;-72
2022/04/04 07:58:29;;;;;;;;;;;;;;;5.84;71.28;101114.59;5109130;28;19931;-72
2022/04/04 08:00:55;;;;;;;;;;;;;;;6.07;70.08;101114.13;5105532;28;19920;-73
2022/04/04 08:03:21;;;;;;;;;;;;;;;6.12;70.81;101114.31;5107016;28;19920;-72
2022/04/04 08:05:47;;;;;;;;;;;;;;;6.28;70.09;101098.97;5107811;28;19923;-72
2022/04/04 08:08:12;;;;;;;;;;;;;;;6.44;70.09;101105.72;5107449;28;20006;-73
2022/04/04 08:10:38;;;;;;;;;;;;;;;6.52;69.45;101083.06;5108208;28;20318;-72
2022/04/04 08:13:03;;;;;;;;;;;;;;;6.63;69.16;101079.38;5107803;27;19924;-72
2022/04/04 08:15:28;;;;;;;;;;;;;;;6.65;66.67;101070.94;5108693;28;20319;-72
2022/04/04 08:17:54;;;;;;;;;;;;;;;6.72;67.06;101062.75;5105415;28;19965;-72
2022/04/04 08:20:21;;;;;;;;;;;;;;;6.82;66.41;101071.75;5107337;28;20014;-72
2022/04/04 08:22:47;;;;;;;;;;;;;;;6.82;66.76;101064.06;5106701;28;19934;-73
2022/04/04 08:25:12;;;;;;;;;;;;;;;6.85;66.37;101061.66;5107145;28;20298;-73
2022/04/04 08:27:38;;;;;;;;;;;;;;;7.03;64.72;101047.97;5109007;28;19920;-72
2022/04/04 08:30:08;;;;;;;;;;;;;;;6.90;64.63;101060.19;5106736;28;19926;-71
2022/04/04 08:32:36;;;;;;;;;;;;;;;6.90;65.82;101043.97;5106608;28;19924;-74
2022/04/04 08:35:02;;;;;;;;;;;;;;;6.95;65.08;101042.50;5107696;28;19915;-72
2022/04/04 08:37:27;;;;;;;;;;;;;;;7.03;64.97;101042.84;5104660;28;19965;-72
2022/04/04 08:39:53;;;;;;;;;;;;;;;7.12;64.87;101023.69;5104816;27;19973;-74
2022/04/04 08:42:20;;;;;;;;;;;;;;;7.25;64.20;101020.84;5107085;28;20329;-73
2022/04/04 08:44:48;;;;;;;;;;;;;;;7.20;64.90;101024.03;5103796;28;20370;-72
2022/04/04 08:47:13;;;;;;;;;;;;;;;7.06;65.36;101028.53;5106836;28;19919;-74
2022/04/04 08:49:39;;;;;;;;;;;;;;;7.08;65.27;101026.03;5106377;28;20379;-72
2022/04/04 08:52:06;;;;;;;;;;;;;;;6.96;65.16;101021.25;5103772;28;20036;-72
2022/04/04 08:54:31;;;;;;;;;;;;;;;6.93;65.40;101018.56;5108154;27;20326;-72
2022/04/04 08:56:56;;;;;;;;;;;;;;;6.89;65.34;101022.66;5106643;28;19931;-73
2022/04/04 08:59:22;;;;;;;;;;;;;;;6.75;67.02;101010.06;5105856;28;19923;-72
2022/04/04 09:01:47;;;;;;;;;;;;;;;6.75;66.72;101018.59;5107623;27;20065;-73
2022/04/04 09:04:17;;;;;;;;;;;;;;;6.63;67.52;101015.47;5104268;27;19945;-73
2022/04/04 09:06:46;;;;;;;;;;;;;;;6.49;69.17;101014.81;5105320;28;19996;-72
2022/04/04 09:09:11;;;;;;;;;;;;;;;6.59;68.82;101004.22;5103999;28;20285;-72
2022/04/04 09:11:37;;;;;;;;;;;;;;;6.77;68.51;101006.75;5105473;27;19920;-72
2022/04/04 09:14:04;;;;;;;;;;;;;;;6.62;69.41;101009.50;5102332;28;20286;-72
2022/04/04 09:16:29;;;;;;;;;;;;;;;6.52;70.23;100997.09;5106962;28;19920;-72
2022/04/04 09:18:55;;;;;;;;;;;;;;;6.48;69.99;100984.97;5107984;28;20555;-73
2022/04/04 09:21:20;;;;;;;;;;;;;;;6.41;70.03;100986.38;5113654;27;20281;-71
2022/04/04 09:23:45;;;;;;;;;;;;;;;6.45;70.67;101001.03;5103847;28;19947;-72
2022/04/04 09:26:29;;;;;;;;;;;;;;;6.43;70.65;100987.34;5100673;27;20026;-72
2022/04/04 09:28:55;;;;;;;;;;;;;;;6.50;72.28;100987.63;5106424;28;19972;-72
2022/04/04 09:31:20;;;;;;;;;;;;;;;6.56;71.11;100988.78;5102652;28;20006;-71
2022/04/04 09:33:46;;;;;;;;;;;;;;;6.45;72.41;100970.41;5102544;27;19921;-72
2022/04/04 09:36:11;;;;;;;;;;;;;;;6.40;72.89;100969.31;5106444;28;19961;-72
2022/04/04 09:38:53;;;;;;;;;;;;;;;6.42;73.50;100977.91;5106807;28;19931;-73
2022/04/04 09:41:20;;;;;;;;;;;;;;;6.26;74.39;100972.03;5095713;28;19916;-73
2022/04/04 09:44:11;;;;;;;;;;;;;;;5.97;76.86;100958.75;5100706;28;19923;-74
2022/04/04 09:46:41;;;;;;;;;;;;;;;5.92;76.66;100967.84;5101948;28;19995;-73
2022/04/04 09:49:08;;;;;;;;;;;;;;;5.79;77.60;100963.81;5103809;28;19915;-73
2022/04/04 09:51:39;;;;;;;;;;;;;;;5.71;79.34;100972.78;5103027;28;19915;-74
2022/04/04 09:54:06;;;;;;;;;;;;;;;5.70;79.18;100965.88;5104166;28;19916;-73
2022/04/04 09:56:31;;;;;;;;;;;;;;;5.64;79.92;100953.75;5106410;28;19927;-74
2022/04/04 09:58:58;;;;;;;;;;;;;;;5.71;78.37;100965.13;5103688;28;19924;-74
2022/04/04 10:01:24;;;;;;;;;;;;;;;5.46;82.90;100949.38;5115265;28;19927;-72
2022/04/04 10:03:51;;;;;;;;;;;;;;;5.44;80.43;100958.63;5119316;27;19924;-74
2022/04/04 10:06:18;;;;;;;;;;;;;;;5.44;83.03;100951.84;5086410;28;19928;-73
2022/04/04 10:08:44;;;;;;;;;;;;;;;5.39;83.54;100941.41;5102069;28;20358;-73
2022/04/04 10:11:09;;;;;;;;;;;;;;;5.32;84.47;100941.03;5105058;28;19934;-75
2022/04/04 10:13:35;;;;;;;;;;;;;;;5.37;83.54;100943.03;5099659;28;20452;-73
2022/04/04 10:16:01;;;;;;;;;;;;;;;5.50;83.63;100944.50;5104708;28;19916;-75
2022/04/04 10:18:26;;;;;;;;;;;;;;;5.63;83.46;100948.53;5105720;28;19927;-74
2022/04/04 10:20:55;;;;;;;;;;;;;;;5.60;84.41;100928.00;5103910;28;19947;-74
2022/04/04 10:23:22;;;;;;;;;;;;;;;5.73;82.80;100932.88;5104276;28;19926;-76
2022/04/04 10:25:54;;;;;;;;;;;;;;;5.77;85.09;100932.25;5102820;28;20397;-74
2022/04/04 10:28:27;;;;;;;;;;;;;;;5.91;84.52;100928.69;5091104;28;19916;-74
2022/04/04 10:30:52;;;;;;;;;;;;;;;5.79;85.35;100930.63;5098431;28;20015;-74
2022/04/04 10:33:19;;;;;;;;;;;;;;;5.79;84.74;100922.09;5103872;28;20726;-72
2022/04/04 10:36:01;;;;;;;;;;;;;;;5.74;87.10;100921.88;5104313;28;19995;-73
2022/04/04 10:38:30;;;;;;;;;;;;;;;5.62;88.08;100934.03;5104800;28;19928;-76
2022/04/04 10:40:56;;;;;;;;;;;;;;;5.51;89.38;100924.97;5106601;28;19920;-74
2022/04/04 10:43:21;;;;;;;;;;;;;;;5.52;89.61;100922.53;5101743;28;19922;-74
2022/04/04 10:45:52;;;;;;;;;;;;;;;5.46;91.34;100911.13;5105084;28;20298;-73
2022/04/04 10:48:19;;;;;;;;;;;;;;;5.49;90.04;100907.06;5101912;28;19919;-76
2022/04/04 10:50:44;;;;;;;;;;;;;;;5.44;93.60;100923.81;5103946;28;19926;-73
2022/04/04 10:53:10;;;;;;;;;;;;;;;5.44;94.73;100907.63;5103613;28;19924;-76
2022/04/04 10:55:38;;;;;;;;;;;;;;;5.58;92.33;100907.53;5104460;28;19964;-75
2022/04/04 10:58:07;;;;;;;;;;;;;;;5.44;93.40;100897.44;5102234;28;19972;-74
2022/04/04 11:00:34;;;;;;;;;;;;;;;5.51;92.77;100896.91;5104193;28;20063;-74
2022/04/04 11:03:01;;;;;;;;;;;;;;;5.57;92.38;100894.66;5102528;28;19920;-75
2022/04/04 11:08:12;;;;;;;;;;;;;;;5.57;94.13;100897.22;5105037;28;19923;-75
2022/04/04 11:10:42;;;;;;;;;;;;;;;5.53;96.05;100872.38;5106958;28;20453;-75
2022/04/04 11:13:11;;;;;;;;;;;;;;;5.49;93.08;100871.34;5106743;28;19980;-75
2022/04/04 11:15:42;;;;;;;;;;;;;;;5.50;94.93;100887.53;5104327;28;19928;-77
2022/04/04 11:18:07;;;;;;;;;;;;;;;5.56;95.58;100877.63;5104424;28;20011;-75
2022/04/04 11:20:33;;;;;;;;;;;;;;;5.49;97.97;100873.91;5109602;27;20018;-76
2022/04/04 11:23:04;;;;;;;;;;;;;;;5.72;94.43;100861.38;5108404;28;19915;-76
2022/04/04 11:25:34;;;;;;;;;;;;;;;5.55;96.71;100863.13;5106603;27;19922;-75
2022/04/04 11:28:03;;;;;;;;;;;;;;;5.48;99.03;100850.88;5108970;28;19973;-75
2022/04/04 11:30:28;;;;;;;;;;;;;;;5.41;98.05;100862.47;5100918;27;19928;-75
2022/04/04 11:32:56;;;;;;;;;;;;;;;5.42;98.45;100866.75;5107640;28;19923;-74
2022/04/04 11:35:25;;;;;;;;;;;;;;;5.54;94.96;100841.84;5115647;27;19983;-76
2022/04/04 11:37:52;;;;;;;;;;;;;;;5.50;94.17;100851.81;5107539;27;19930;-76
2022/04/04 11:40:33;;;;;;;;;;;;;;;5.42;96.59;100848.03;5109212;27;19972;-74
2022/04/04 11:42:59;;;;;;;;;;;;;;;5.37;95.46;100856.31;5106540;28;19923;-75
2022/04/04 11:45:27;;;;;;;;;;;;;;;5.29;96.41;100842.34;5104280;28;19916;-76
2022/04/04 11:48:02;;;;;;;;;;;;;;;5.21;98.55;100861.47;5106522;28;19922;-77
2022/04/04 11:50:30;;;;;;;;;;;;;;;5.28;97.17;100861.00;5105913;28;19947;-75
2022/04/04 11:52:59;;;;;;;;;;;;;;;5.17;97.25;100849.38;5108620;28;20332;-75
2022/04/04 11:55:25;;;;;;;;;;;;;;;5.13;99.35;100844.94;5108070;28;19941;-76
2022/04/04 11:57:56;;;;;;;;;;;;;;;5.20;98.73;100841.88;5106428;28;19923;-75
2022/04/04 12:00:22;;;;;;;;;;;;;;;5.20;97.74;100839.31;5111915;28;20005;-74
2022/04/04 12:02:48;;;;;;;;;;;;;;;5.20;99.59;100821.47;5121191;28;19929;-76
2022/04/04 12:05:14;;;;;;;;;;;;;;;5.27;98.33;100818.44;5106083;28;20359;-75
2022/04/04 12:07:40;;;;;;;;;;;;;;;5.27;99.39;100823.53;5103468;28;19931;-74
2022/04/04 12:10:06;;;;;;;;;;;;;;;5.24;100.00;100815.75;5107033;28;20390;-75
2022/04/04 12:12:31;;;;;;;;;;;;;;;5.28;98.99;100815.09;5104314;28;19969;-75
2022/04/04 12:14:57;;;;;;;;;;;;;;;5.21;100.00;100807.94;5105836;28;20007;-74
2022/04/04 12:17:25;;;;;;;;;;;;;;;5.25;99.75;100817.50;5105707;28;19993;-74
2022/04/04 12:19:52;;;;;;;;;;;;;;;5.09;100.00;100805.66;5105206;28;19923;-75
2022/04/04 12:25:02;;;;;;;;;;;;;;;5.16;100.00;100803.41;5110136;28;19923;-74
2022/04/04 12:27:28;;;;;;;;;;;;;;;5.14;100.00;100790.59;5107502;28;19963;-75
2022/04/04 12:30:00;;;;;;;;;;;;;;;5.28;100.00;100794.72;5112309;27;19923;-75
2022/04/04 12:32:26;;;;;;;;;;;;;;;5.35;100.00;100794.19;5111125;28;19916;-73
2022/04/04 12:34:57;;;;;;;;;;;;;;;5.37;100.00;100800.22;5112853;28;19937;-75
2022/04/04 12:37:32;;;;;;;;;;;;;;;5.38;100.00;100794.31;5111209;28;19928;-74
2022/04/04 12:40:17;;;;;;;;;;;;;;;5.28;100.00;100789.59;5108464;28;19924;-74
2022/04/04 12:42:42;;;;;;;;;;;;;;;5.25;100.00;100786.03;5105481;28;19955;-76
2022/04/04 12:45:08;;;;;;;;;;;;;;;5.33;100.00;100780.47;5107532;28;20019;-76
2022/04/04 12:47:34;;;;;;;;;;;;;;;5.36;100.00;100765.34;5105551;28;20594;-75